sensor_id;sensor_type;location;lat;lon;timestamp;P1;durP1;ratioP1;P2;durP2;ratioP2
7767;SDS011;3928;42.626;23.382;2023-06-14T00:00:13;12.02;;;10.55;;
7767;SDS011;3928;42.626;23.382;2023-06-14T00:02:41;11.75;;;10.27;;
7767;SDS011;3928;42.626;23.382;2023-06-14T00:05:09;12.15;;;10.60;;
7767;SDS011;3928;42.626;23.382;2023-06-14T00:07:38;14.35;;;11.25;;
7767;SDS011;3928;42.626;23.382;2023-06-14T00:10:07;12.68;;;10.90;;
7767;SDS011;3928;42.626;23.382;2023-06-14T00:12:35;12.63;;;10.60;;
7767;SDS011;3928;42.626;23.382;2023-06-14T00:15:02;11.55;;;10.30;;
7767;SDS011;3928;42.626;23.382;2023-06-14T00:17:29;15.82;;;11.13;;
7767;SDS011;3928;42.626;23.382;2023-06-14T00:19:56;13.07;;;10.10;;
7767;SDS011;3928;42.626;23.382;2023-06-14T00:22:25;14.65;;;9.98;;
7767;SDS011;3928;42.626;23.382;2023-06-14T00:24:54;13.85;;;10.18;;
7767;SDS011;3928;42.626;23.382;2023-06-14T00:27:20;17.77;;;11.00;;
7767;SDS011;3928;42.626;23.382;2023-06-14T00:29:47;13.90;;;10.35;;
7767;SDS011;3928;42.626;23.382;2023-06-14T00:32:14;12.38;;;11.18;;
7767;SDS011;3928;42.626;23.382;2023-06-14T00:34:41;10.77;;;9.35;;
7767;SDS011;3928;42.626;23.382;2023-06-14T00:37:08;12.15;;;10.05;;
7767;SDS011;3928;42.626;23.382;2023-06-14T00:39:36;10.55;;;9.38;;
7767;SDS011;3928;42.626;23.382;2023-06-14T00:42:03;10.48;;;9.25;;
7767;SDS011;3928;42.626;23.382;2023-06-14T00:44:30;13.75;;;10.52;;
7767;SDS011;3928;42.626;23.382;2023-06-14T00:46:57;14.52;;;10.55;;
7767;SDS011;3928;42.626;23.382;2023-06-14T00:49:24;12.52;;;9.93;;
7767;SDS011;3928;42.626;23.382;2023-06-14T00:51:51;13.70;;;10.30;;
7767;SDS011;3928;42.626;23.382;2023-06-14T00:54:17;12.63;;;11.32;;
7767;SDS011;3928;42.626;23.382;2023-06-14T00:56:46;11.65;;;10.43;;
7767;SDS011;3928;42.626;23.382;2023-06-14T00:59:12;12.52;;;11.18;;
7767;SDS011;3928;42.626;23.382;2023-06-14T01:01:40;12.75;;;11.07;;
7767;SDS011;3928;42.626;23.382;2023-06-14T01:04:07;13.85;;;9.93;;
7767;SDS011;3928;42.626;23.382;2023-06-14T01:06:35;12.85;;;10.13;;
7767;SDS011;3928;42.626;23.382;2023-06-14T01:09:14;15.65;;;10.90;;
7767;SDS011;3928;42.626;23.382;2023-06-14T01:11:49;11.73;;;10.10;;
7767;SDS011;3928;42.626;23.382;2023-06-14T01:14:20;11.15;;;9.95;;
7767;SDS011;3928;42.626;23.382;2023-06-14T01:16:47;15.70;;;10.02;;
7767;SDS011;3928;42.626;23.382;2023-06-14T01:19:18;12.18;;;10.10;;
7767;SDS011;3928;42.626;23.382;2023-06-14T01:21:47;12.43;;;10.18;;
7767;SDS011;3928;42.626;23.382;2023-06-14T01:24:17;10.63;;;9.52;;
7767;SDS011;3928;42.626;23.382;2023-06-14T01:26:48;11.57;;;9.63;;
7767;SDS011;3928;42.626;23.382;2023-06-14T01:29:20;10.98;;;9.45;;
7767;SDS011;3928;42.626;23.382;2023-06-14T01:31:48;11.52;;;8.93;;
7767;SDS011;3928;42.626;23.382;2023-06-14T01:34:16;12.07;;;9.10;;
7767;SDS011;3928;42.626;23.382;2023-06-14T01:36:43;10.27;;;8.95;;
7767;SDS011;3928;42.626;23.382;2023-06-14T01:39:11;12.82;;;8.65;;
7767;SDS011;3928;42.626;23.382;2023-06-14T01:41:42;12.60;;;9.10;;
7767;SDS011;3928;42.626;23.382;2023-06-14T01:44:10;9.95;;;9.00;;
7767;SDS011;3928;42.626;23.382;2023-06-14T01:46:38;9.30;;;8.35;;
7767;SDS011;3928;42.626;23.382;2023-06-14T01:49:07;10.07;;;8.25;;
7767;SDS011;3928;42.626;23.382;2023-06-14T01:51:34;8.55;;;7.65;;
7767;SDS011;3928;42.626;23.382;2023-06-14T01:54:00;10.93;;;8.52;;
7767;SDS011;3928;42.626;23.382;2023-06-14T01:56:27;12.77;;;8.40;;
7767;SDS011;3928;42.626;23.382;2023-06-14T01:58:56;11.07;;;9.20;;
7767;SDS011;3928;42.626;23.382;2023-06-14T02:01:23;10.88;;;9.75;;
7767;SDS011;3928;42.626;23.382;2023-06-14T02:03:50;11.68;;;10.48;;
7767;SDS011;3928;42.626;23.382;2023-06-14T02:06:18;12.77;;;8.63;;
7767;SDS011;3928;42.626;23.382;2023-06-14T02:08:45;10.85;;;8.65;;
7767;SDS011;3928;42.626;23.382;2023-06-14T02:11:12;8.88;;;7.82;;
7767;SDS011;3928;42.626;23.382;2023-06-14T02:13:39;10.07;;;8.52;;
7767;SDS011;3928;42.626;23.382;2023-06-14T02:16:07;10.00;;;8.43;;
7767;SDS011;3928;42.626;23.382;2023-06-14T02:18:34;12.57;;;9.27;;
7767;SDS011;3928;42.626;23.382;2023-06-14T02:21:00;9.50;;;8.50;;
7767;SDS011;3928;42.626;23.382;2023-06-14T02:23:27;9.60;;;8.15;;
7767;SDS011;3928;42.626;23.382;2023-06-14T02:25:54;11.77;;;8.07;;
7767;SDS011;3928;42.626;23.382;2023-06-14T02:28:21;8.93;;;7.32;;
7767;SDS011;3928;42.626;23.382;2023-06-14T02:30:48;8.75;;;7.82;;
7767;SDS011;3928;42.626;23.382;2023-06-14T02:33:16;10.52;;;8.27;;
7767;SDS011;3928;42.626;23.382;2023-06-14T02:35:43;9.73;;;7.95;;
7767;SDS011;3928;42.626;23.382;2023-06-14T02:38:11;8.52;;;6.60;;
7767;SDS011;3928;42.626;23.382;2023-06-14T02:40:38;9.68;;;7.28;;
7767;SDS011;3928;42.626;23.382;2023-06-14T02:43:07;9.77;;;6.97;;
7767;SDS011;3928;42.626;23.382;2023-06-14T02:45:34;9.93;;;7.70;;
7767;SDS011;3928;42.626;23.382;2023-06-14T02:48:00;7.28;;;6.68;;
7767;SDS011;3928;42.626;23.382;2023-06-14T02:50:29;8.63;;;7.07;;
7767;SDS011;3928;42.626;23.382;2023-06-14T02:52:55;9.38;;;6.75;;
7767;SDS011;3928;42.626;23.382;2023-06-14T02:55:23;6.90;;;6.30;;
7767;SDS011;3928;42.626;23.382;2023-06-14T02:57:51;8.95;;;7.10;;
7767;SDS011;3928;42.626;23.382;2023-06-14T03:00:19;8.30;;;7.50;;
7767;SDS011;3928;42.626;23.382;2023-06-14T03:02:45;9.10;;;7.50;;
7767;SDS011;3928;42.626;23.382;2023-06-14T03:05:12;10.65;;;6.95;;
7767;SDS011;3928;42.626;23.382;2023-06-14T03:07:41;7.97;;;6.72;;
7767;SDS011;3928;42.626;23.382;2023-06-14T03:10:10;7.15;;;6.45;;
7767;SDS011;3928;42.626;23.382;2023-06-14T03:12:39;8.43;;;7.10;;
7767;SDS011;3928;42.626;23.382;2023-06-14T03:15:06;10.05;;;6.65;;
7767;SDS011;3928;42.626;23.382;2023-06-14T03:17:34;7.60;;;6.90;;
7767;SDS011;3928;42.626;23.382;2023-06-14T03:20:04;8.23;;;7.03;;
7767;SDS011;3928;42.626;23.382;2023-06-14T03:22:31;7.30;;;6.60;;
7767;SDS011;3928;42.626;23.382;2023-06-14T03:25:00;10.07;;;7.00;;
7767;SDS011;3928;42.626;23.382;2023-06-14T03:27:29;8.02;;;7.07;;
7767;SDS011;3928;42.626;23.382;2023-06-14T03:29:56;11.45;;;7.63;;
7767;SDS011;3928;42.626;23.382;2023-06-14T03:32:23;9.05;;;6.65;;
7767;SDS011;3928;42.626;23.382;2023-06-14T03:34:49;7.78;;;7.07;;
7767;SDS011;3928;42.626;23.382;2023-06-14T03:37:17;8.05;;;7.25;;
7767;SDS011;3928;42.626;23.382;2023-06-14T03:39:44;9.13;;;7.25;;
7767;SDS011;3928;42.626;23.382;2023-06-14T03:42:14;11.52;;;6.88;;
7767;SDS011;3928;42.626;23.382;2023-06-14T03:44:41;8.07;;;7.28;;
7767;SDS011;3928;42.626;23.382;2023-06-14T03:47:07;7.40;;;6.70;;
7767;SDS011;3928;42.626;23.382;2023-06-14T03:49:35;7.55;;;6.63;;
7767;SDS011;3928;42.626;23.382;2023-06-14T03:52:02;8.38;;;6.95;;
7767;SDS011;3928;42.626;23.382;2023-06-14T03:54:29;9.85;;;7.70;;
7767;SDS011;3928;42.626;23.382;2023-06-14T03:56:57;8.10;;;6.65;;
7767;SDS011;3928;42.626;23.382;2023-06-14T03:59:26;9.35;;;7.80;;
7767;SDS011;3928;42.626;23.382;2023-06-14T04:01:53;9.48;;;7.75;;
7767;SDS011;3928;42.626;23.382;2023-06-14T04:04:21;11.35;;;7.65;;
7767;SDS011;3928;42.626;23.382;2023-06-14T04:06:54;7.78;;;6.97;;
7767;SDS011;3928;42.626;23.382;2023-06-14T04:09:22;11.68;;;7.53;;
7767;SDS011;3928;42.626;23.382;2023-06-14T04:11:49;8.05;;;7.22;;
7767;SDS011;3928;42.626;23.382;2023-06-14T04:14:17;8.07;;;7.28;;
7767;SDS011;3928;42.626;23.382;2023-06-14T04:16:46;8.93;;;7.35;;
7767;SDS011;3928;42.626;23.382;2023-06-14T04:19:13;9.13;;;7.70;;
7767;SDS011;3928;42.626;23.382;2023-06-14T04:21:39;7.40;;;6.72;;
7767;SDS011;3928;42.626;23.382;2023-06-14T04:24:07;9.05;;;7.30;;
7767;SDS011;3928;42.626;23.382;2023-06-14T04:26:38;7.72;;;7.05;;
7767;SDS011;3928;42.626;23.382;2023-06-14T04:29:05;11.15;;;7.50;;
7767;SDS011;3928;42.626;23.382;2023-06-14T04:31:32;9.75;;;8.00;;
7767;SDS011;3928;42.626;23.382;2023-06-14T04:34:00;9.23;;;8.32;;
7767;SDS011;3928;42.626;23.382;2023-06-14T04:36:32;13.88;;;8.48;;
7767;SDS011;3928;42.626;23.382;2023-06-14T04:39:02;9.43;;;8.45;;
7767;SDS011;3928;42.626;23.382;2023-06-14T04:41:29;9.50;;;7.78;;
7767;SDS011;3928;42.626;23.382;2023-06-14T04:43:56;16.73;;;9.80;;
7767;SDS011;3928;42.626;23.382;2023-06-14T04:46:26;9.13;;;8.13;;
7767;SDS011;3928;42.626;23.382;2023-06-14T04:48:54;9.20;;;8.30;;
7767;SDS011;3928;42.626;23.382;2023-06-14T04:51:23;16.67;;;9.40;;
7767;SDS011;3928;42.626;23.382;2023-06-14T04:53:55;12.82;;;9.43;;
7767;SDS011;3928;42.626;23.382;2023-06-14T04:56:23;10.32;;;8.93;;
7767;SDS011;3928;42.626;23.382;2023-06-14T04:58:51;11.85;;;9.77;;
7767;SDS011;3928;42.626;23.382;2023-06-14T05:01:18;13.65;;;10.50;;
7767;SDS011;3928;42.626;23.382;2023-06-14T05:03:44;12.05;;;9.73;;
7767;SDS011;3928;42.626;23.382;2023-06-14T05:06:13;16.88;;;10.15;;
7767;SDS011;3928;42.626;23.382;2023-06-14T05:08:42;14.23;;;10.02;;
7767;SDS011;3928;42.626;23.382;2023-06-14T05:11:08;9.57;;;8.27;;
7767;SDS011;3928;42.626;23.382;2023-06-14T05:13:35;11.07;;;9.48;;
7767;SDS011;3928;42.626;23.382;2023-06-14T05:16:02;9.98;;;8.25;;
7767;SDS011;3928;42.626;23.382;2023-06-14T05:18:29;11.35;;;10.18;;
7767;SDS011;3928;42.626;23.382;2023-06-14T05:20:56;15.13;;;10.75;;
7767;SDS011;3928;42.626;23.382;2023-06-14T05:23:23;15.23;;;11.48;;
7767;SDS011;3928;42.626;23.382;2023-06-14T05:25:51;13.32;;;10.15;;
7767;SDS011;3928;42.626;23.382;2023-06-14T05:28:18;17.25;;;11.20;;
7767;SDS011;3928;42.626;23.382;2023-06-14T05:30:45;16.70;;;10.70;;
7767;SDS011;3928;42.626;23.382;2023-06-14T05:33:12;12.98;;;9.38;;
7767;SDS011;3928;42.626;23.382;2023-06-14T05:35:39;13.48;;;10.10;;
7767;SDS011;3928;42.626;23.382;2023-06-14T05:38:06;10.48;;;9.38;;
7767;SDS011;3928;42.626;23.382;2023-06-14T05:40:32;15.98;;;11.38;;
7767;SDS011;3928;42.626;23.382;2023-06-14T05:43:01;12.00;;;10.75;;
7767;SDS011;3928;42.626;23.382;2023-06-14T05:45:27;18.50;;;12.38;;
7767;SDS011;3928;42.626;23.382;2023-06-14T05:47:54;12.95;;;11.38;;
7767;SDS011;3928;42.626;23.382;2023-06-14T05:50:21;17.60;;;11.65;;
7767;SDS011;3928;42.626;23.382;2023-06-14T05:52:48;14.85;;;11.23;;
7767;SDS011;3928;42.626;23.382;2023-06-14T05:55:15;17.42;;;11.70;;
7767;SDS011;3928;42.626;23.382;2023-06-14T05:57:42;21.45;;;12.70;;
7767;SDS011;3928;42.626;23.382;2023-06-14T06:00:11;15.60;;;10.55;;
7767;SDS011;3928;42.626;23.382;2023-06-14T06:02:40;15.32;;;11.35;;
7767;SDS011;3928;42.626;23.382;2023-06-14T06:05:08;14.85;;;12.05;;
7767;SDS011;3928;42.626;23.382;2023-06-14T06:07:35;17.35;;;12.73;;
7767;SDS011;3928;42.626;23.382;2023-06-14T06:10:02;14.82;;;10.77;;
7767;SDS011;3928;42.626;23.382;2023-06-14T06:12:30;14.93;;;13.25;;
7767;SDS011;3928;42.626;23.382;2023-06-14T06:14:57;13.88;;;11.73;;
7767;SDS011;3928;42.626;23.382;2023-06-14T06:17:26;17.30;;;13.20;;
7767;SDS011;3928;42.626;23.382;2023-06-14T06:19:53;15.50;;;11.50;;
7767;SDS011;3928;42.626;23.382;2023-06-14T06:22:20;19.23;;;13.75;;
7767;SDS011;3928;42.626;23.382;2023-06-14T06:24:47;18.55;;;15.18;;
7767;SDS011;3928;42.626;23.382;2023-06-14T06:27:15;17.70;;;15.15;;
7767;SDS011;3928;42.626;23.382;2023-06-14T06:29:44;18.05;;;15.30;;
7767;SDS011;3928;42.626;23.382;2023-06-14T06:32:11;16.83;;;13.52;;
7767;SDS011;3928;42.626;23.382;2023-06-14T06:34:39;18.58;;;14.05;;
7767;SDS011;3928;42.626;23.382;2023-06-14T06:37:06;21.42;;;15.60;;
7767;SDS011;3928;42.626;23.382;2023-06-14T06:39:32;19.63;;;17.50;;
7767;SDS011;3928;42.626;23.382;2023-06-14T06:42:00;21.25;;;17.20;;
7767;SDS011;3928;42.626;23.382;2023-06-14T06:44:26;18.45;;;15.60;;
7767;SDS011;3928;42.626;23.382;2023-06-14T06:46:54;17.02;;;13.95;;
7767;SDS011;3928;42.626;23.382;2023-06-14T06:49:20;16.13;;;14.38;;
7767;SDS011;3928;42.626;23.382;2023-06-14T06:52:00;18.15;;;14.10;;
7767;SDS011;3928;42.626;23.382;2023-06-14T06:54:28;14.93;;;11.38;;
7767;SDS011;3928;42.626;23.382;2023-06-14T06:56:54;18.15;;;12.85;;
7767;SDS011;3928;42.626;23.382;2023-06-14T06:59:21;17.50;;;12.90;;
7767;SDS011;3928;42.626;23.382;2023-06-14T07:01:48;17.05;;;13.20;;
7767;SDS011;3928;42.626;23.382;2023-06-14T07:04:15;18.40;;;13.75;;
7767;SDS011;3928;42.626;23.382;2023-06-14T07:06:42;16.20;;;13.88;;
7767;SDS011;3928;42.626;23.382;2023-06-14T07:09:10;16.35;;;14.57;;
7767;SDS011;3928;42.626;23.382;2023-06-14T07:11:40;14.85;;;12.55;;
7767;SDS011;3928;42.626;23.382;2023-06-14T07:14:07;16.60;;;12.73;;
7767;SDS011;3928;42.626;23.382;2023-06-14T07:16:33;14.18;;;12.68;;
7767;SDS011;3928;42.626;23.382;2023-06-14T07:19:01;16.35;;;13.95;;
7767;SDS011;3928;42.626;23.382;2023-06-14T07:21:28;16.52;;;12.60;;
7767;SDS011;3928;42.626;23.382;2023-06-14T07:23:55;17.73;;;14.13;;
7767;SDS011;3928;42.626;23.382;2023-06-14T07:26:23;15.38;;;12.02;;
7767;SDS011;3928;42.626;23.382;2023-06-14T07:28:51;14.70;;;12.15;;
7767;SDS011;3928;42.626;23.382;2023-06-14T07:31:18;15.02;;;12.48;;
7767;SDS011;3928;42.626;23.382;2023-06-14T07:33:45;14.25;;;12.65;;
7767;SDS011;3928;42.626;23.382;2023-06-14T07:36:12;16.27;;;13.27;;
7767;SDS011;3928;42.626;23.382;2023-06-14T07:38:39;14.07;;;12.65;;
7767;SDS011;3928;42.626;23.382;2023-06-14T07:41:06;17.75;;;12.90;;
7767;SDS011;3928;42.626;23.382;2023-06-14T07:43:34;13.82;;;12.00;;
7767;SDS011;3928;42.626;23.382;2023-06-14T07:46:01;14.20;;;12.02;;
7767;SDS011;3928;42.626;23.382;2023-06-14T07:48:28;13.13;;;10.75;;
7767;SDS011;3928;42.626;23.382;2023-06-14T07:50:55;17.42;;;11.98;;
7767;SDS011;3928;42.626;23.382;2023-06-14T07:53:22;15.57;;;12.07;;
7767;SDS011;3928;42.626;23.382;2023-06-14T07:55:49;15.15;;;13.55;;
7767;SDS011;3928;42.626;23.382;2023-06-14T07:58:16;16.50;;;13.05;;
7767;SDS011;3928;42.626;23.382;2023-06-14T08:00:44;16.52;;;13.80;;
7767;SDS011;3928;42.626;23.382;2023-06-14T08:03:11;15.75;;;14.25;;
7767;SDS011;3928;42.626;23.382;2023-06-14T08:05:38;17.42;;;12.88;;
7767;SDS011;3928;42.626;23.382;2023-06-14T08:08:04;14.63;;;13.02;;
7767;SDS011;3928;42.626;23.382;2023-06-14T08:10:31;15.20;;;12.45;;
7767;SDS011;3928;42.626;23.382;2023-06-14T08:12:58;14.32;;;12.30;;
7767;SDS011;3928;42.626;23.382;2023-06-14T08:15:25;15.07;;;11.85;;
7767;SDS011;3928;42.626;23.382;2023-06-14T08:17:53;14.38;;;11.20;;
7767;SDS011;3928;42.626;23.382;2023-06-14T08:20:20;15.43;;;11.63;;
7767;SDS011;3928;42.626;23.382;2023-06-14T08:22:46;14.93;;;10.90;;
7767;SDS011;3928;42.626;23.382;2023-06-14T08:25:13;16.38;;;11.43;;
7767;SDS011;3928;42.626;23.382;2023-06-14T08:27:40;15.27;;;11.50;;
7767;SDS011;3928;42.626;23.382;2023-06-14T08:30:07;12.90;;;11.48;;
7767;SDS011;3928;42.626;23.382;2023-06-14T08:32:35;12.55;;;11.30;;
7767;SDS011;3928;42.626;23.382;2023-06-14T08:35:03;14.18;;;10.43;;
7767;SDS011;3928;42.626;23.382;2023-06-14T08:37:32;15.85;;;11.50;;
7767;SDS011;3928;42.626;23.382;2023-06-14T08:39:59;13.95;;;11.05;;
7767;SDS011;3928;42.626;23.382;2023-06-14T08:42:26;16.08;;;12.23;;
7767;SDS011;3928;42.626;23.382;2023-06-14T08:44:53;14.57;;;12.85;;
7767;SDS011;3928;42.626;23.382;2023-06-14T08:47:19;15.00;;;12.93;;
7767;SDS011;3928;42.626;23.382;2023-06-14T08:49:49;19.02;;;12.50;;
7767;SDS011;3928;42.626;23.382;2023-06-14T08:52:18;16.75;;;12.68;;
7767;SDS011;3928;42.626;23.382;2023-06-14T08:54:47;16.23;;;12.85;;
7767;SDS011;3928;42.626;23.382;2023-06-14T08:57:15;17.08;;;11.85;;
7767;SDS011;3928;42.626;23.382;2023-06-14T08:59:46;14.15;;;12.02;;
7767;SDS011;3928;42.626;23.382;2023-06-14T09:02:17;14.00;;;12.27;;
7767;SDS011;3928;42.626;23.382;2023-06-14T09:04:44;14.60;;;11.75;;
7767;SDS011;3928;42.626;23.382;2023-06-14T09:07:11;13.32;;;11.75;;
7767;SDS011;3928;42.626;23.382;2023-06-14T09:09:40;12.27;;;11.05;;
7767;SDS011;3928;42.626;23.382;2023-06-14T09:12:08;13.02;;;11.65;;
7767;SDS011;3928;42.626;23.382;2023-06-14T09:14:37;16.15;;;11.38;;
7767;SDS011;3928;42.626;23.382;2023-06-14T09:17:07;16.70;;;11.27;;
7767;SDS011;3928;42.626;23.382;2023-06-14T09:19:34;14.65;;;11.40;;
7767;SDS011;3928;42.626;23.382;2023-06-14T09:22:02;13.02;;;11.73;;
7767;SDS011;3928;42.626;23.382;2023-06-14T09:24:30;13.50;;;11.30;;
7767;SDS011;3928;42.626;23.382;2023-06-14T09:26:58;13.43;;;10.90;;
7767;SDS011;3928;42.626;23.382;2023-06-14T09:29:25;13.50;;;11.63;;
7767;SDS011;3928;42.626;23.382;2023-06-14T09:31:52;13.82;;;10.95;;
7767;SDS011;3928;42.626;23.382;2023-06-14T09:34:19;12.35;;;10.98;;
7767;SDS011;3928;42.626;23.382;2023-06-14T09:36:49;12.57;;;11.27;;
7767;SDS011;3928;42.626;23.382;2023-06-14T09:39:17;14.40;;;11.40;;
7767;SDS011;3928;42.626;23.382;2023-06-14T09:41:44;16.10;;;11.82;;
7767;SDS011;3928;42.626;23.382;2023-06-14T09:44:12;12.32;;;11.02;;
7767;SDS011;3928;42.626;23.382;2023-06-14T09:46:39;11.90;;;10.70;;
7767;SDS011;3928;42.626;23.382;2023-06-14T09:49:06;13.40;;;12.02;;
7767;SDS011;3928;42.626;23.382;2023-06-14T09:51:33;13.15;;;11.45;;
7767;SDS011;3928;42.626;23.382;2023-06-14T09:54:03;13.18;;;11.98;;
7767;SDS011;3928;42.626;23.382;2023-06-14T09:56:32;13.82;;;12.10;;
7767;SDS011;3928;42.626;23.382;2023-06-14T09:59:04;14.10;;;12.57;;
7767;SDS011;3928;42.626;23.382;2023-06-14T10:01:34;12.70;;;10.73;;
7767;SDS011;3928;42.626;23.382;2023-06-14T10:04:03;14.23;;;11.35;;
7767;SDS011;3928;42.626;23.382;2023-06-14T10:06:31;13.15;;;11.80;;
7767;SDS011;3928;42.626;23.382;2023-06-14T10:09:03;15.25;;;11.73;;
7767;SDS011;3928;42.626;23.382;2023-06-14T10:11:31;12.68;;;10.98;;
7767;SDS011;3928;42.626;23.382;2023-06-14T10:14:00;13.18;;;10.90;;
7767;SDS011;3928;42.626;23.382;2023-06-14T10:16:30;13.23;;;11.50;;
7767;SDS011;3928;42.626;23.382;2023-06-14T10:19:02;12.40;;;10.73;;
7767;SDS011;3928;42.626;23.382;2023-06-14T10:21:36;20.83;;;12.23;;
7767;SDS011;3928;42.626;23.382;2023-06-14T10:24:08;17.45;;;10.85;;
7767;SDS011;3928;42.626;23.382;2023-06-14T10:26:49;15.50;;;9.98;;
7767;SDS011;3928;42.626;23.382;2023-06-14T10:29:18;14.27;;;10.63;;
7767;SDS011;3928;42.626;23.382;2023-06-14T10:31:46;10.93;;;9.73;;
7767;SDS011;3928;42.626;23.382;2023-06-14T10:34:22;14.10;;;10.77;;
7767;SDS011;3928;42.626;23.382;2023-06-14T10:39:38;12.60;;;11.30;;
7767;SDS011;3928;42.626;23.382;2023-06-14T10:42:06;10.25;;;9.27;;
7767;SDS011;3928;42.626;23.382;2023-06-14T10:44:38;11.02;;;9.65;;
7767;SDS011;3928;42.626;23.382;2023-06-14T10:47:07;11.07;;;9.95;;
7767;SDS011;3928;42.626;23.382;2023-06-14T10:49:38;10.23;;;9.23;;
7767;SDS011;3928;42.626;23.382;2023-06-14T10:52:07;16.00;;;9.50;;
7767;SDS011;3928;42.626;23.382;2023-06-14T10:54:55;11.77;;;10.10;;
7767;SDS011;3928;42.626;23.382;2023-06-14T10:57:34;13.48;;;10.23;;
7767;SDS011;3928;42.626;23.382;2023-06-14T11:00:03;11.63;;;9.68;;
7767;SDS011;3928;42.626;23.382;2023-06-14T11:05:48;12.82;;;8.65;;
7767;SDS011;3928;42.626;23.382;2023-06-14T11:11:29;10.10;;;8.02;;
7767;SDS011;3928;42.626;23.382;2023-06-14T11:13:59;9.32;;;8.43;;
7767;SDS011;3928;42.626;23.382;2023-06-14T11:16:26;9.20;;;8.30;;
7767;SDS011;3928;42.626;23.382;2023-06-14T11:18:54;8.80;;;7.78;;
7767;SDS011;3928;42.626;23.382;2023-06-14T11:21:23;10.43;;;7.75;;
7767;SDS011;3928;42.626;23.382;2023-06-14T11:23:56;7.93;;;7.22;;
7767;SDS011;3928;42.626;23.382;2023-06-14T11:26:26;9.82;;;8.13;;
7767;SDS011;3928;42.626;23.382;2023-06-14T11:28:56;8.07;;;7.28;;
7767;SDS011;3928;42.626;23.382;2023-06-14T11:31:24;9.30;;;7.35;;
7767;SDS011;3928;42.626;23.382;2023-06-14T11:33:53;7.90;;;7.20;;
7767;SDS011;3928;42.626;23.382;2023-06-14T11:36:20;8.27;;;7.47;;
7767;SDS011;3928;42.626;23.382;2023-06-14T11:38:48;8.85;;;7.45;;
7767;SDS011;3928;42.626;23.382;2023-06-14T11:41:15;8.02;;;7.25;;
7767;SDS011;3928;42.626;23.382;2023-06-14T11:43:42;7.53;;;6.72;;
7767;SDS011;3928;42.626;23.382;2023-06-14T11:46:12;11.88;;;7.25;;
7767;SDS011;3928;42.626;23.382;2023-06-14T11:48:41;7.35;;;6.50;;
7767;SDS011;3928;42.626;23.382;2023-06-14T11:51:09;8.77;;;7.03;;
7767;SDS011;3928;42.626;23.382;2023-06-14T11:53:36;7.32;;;6.63;;
7767;SDS011;3928;42.626;23.382;2023-06-14T11:56:04;7.95;;;7.15;;
7767;SDS011;3928;42.626;23.382;2023-06-14T11:58:32;6.65;;;5.97;;
7767;SDS011;3928;42.626;23.382;2023-06-14T12:00:58;7.50;;;6.70;;
7767;SDS011;3928;42.626;23.382;2023-06-14T12:03:25;7.85;;;6.38;;
7767;SDS011;3928;42.626;23.382;2023-06-14T12:06:04;6.88;;;6.30;;
7767;SDS011;3928;42.626;23.382;2023-06-14T12:08:32;7.60;;;6.63;;
7767;SDS011;3928;42.626;23.382;2023-06-14T12:11:06;7.13;;;6.53;;
7767;SDS011;3928;42.626;23.382;2023-06-14T12:13:37;7.40;;;6.57;;
7767;SDS011;3928;42.626;23.382;2023-06-14T12:16:06;17.85;;;16.10;;
7767;SDS011;3928;42.626;23.382;2023-06-14T12:18:33;17.67;;;15.60;;
7767;SDS011;3928;42.626;23.382;2023-06-14T12:21:01;14.00;;;11.63;;
7767;SDS011;3928;42.626;23.382;2023-06-14T12:23:40;9.20;;;7.38;;
7767;SDS011;3928;42.626;23.382;2023-06-14T12:26:11;8.13;;;6.78;;
7767;SDS011;3928;42.626;23.382;2023-06-14T12:28:39;7.18;;;6.47;;
7767;SDS011;3928;42.626;23.382;2023-06-14T12:31:06;8.00;;;7.20;;
7767;SDS011;3928;42.626;23.382;2023-06-14T12:33:33;7.28;;;6.57;;
7767;SDS011;3928;42.626;23.382;2023-06-14T12:36:02;8.43;;;7.63;;
7767;SDS011;3928;42.626;23.382;2023-06-14T12:38:30;7.38;;;6.07;;
7767;SDS011;3928;42.626;23.382;2023-06-14T12:40:56;6.97;;;6.38;;
7767;SDS011;3928;42.626;23.382;2023-06-14T12:43:25;8.00;;;7.03;;
7767;SDS011;3928;42.626;23.382;2023-06-14T12:45:52;9.45;;;6.68;;
7767;SDS011;3928;42.626;23.382;2023-06-14T12:48:18;11.20;;;6.28;;
7767;SDS011;3928;42.626;23.382;2023-06-14T12:50:46;6.78;;;6.20;;
7767;SDS011;3928;42.626;23.382;2023-06-14T12:53:13;8.40;;;6.63;;
7767;SDS011;3928;42.626;23.382;2023-06-14T12:55:40;7.18;;;6.57;;
7767;SDS011;3928;42.626;23.382;2023-06-14T12:58:07;7.70;;;6.82;;
7767;SDS011;3928;42.626;23.382;2023-06-14T13:00:35;7.80;;;7.10;;
7767;SDS011;3928;42.626;23.382;2023-06-14T13:03:02;8.55;;;7.70;;
7767;SDS011;3928;42.626;23.382;2023-06-14T13:05:29;8.82;;;7.90;;
7767;SDS011;3928;42.626;23.382;2023-06-14T13:07:56;12.82;;;8.65;;
7767;SDS011;3928;42.626;23.382;2023-06-14T13:10:23;10.85;;;8.55;;
7767;SDS011;3928;42.626;23.382;2023-06-14T13:12:50;14.07;;;8.85;;
7767;SDS011;3928;42.626;23.382;2023-06-14T13:15:17;8.68;;;6.63;;
7767;SDS011;3928;42.626;23.382;2023-06-14T13:17:45;7.75;;;6.95;;
7767;SDS011;3928;42.626;23.382;2023-06-14T13:20:13;10.32;;;6.85;;
7767;SDS011;3928;42.626;23.382;2023-06-14T13:22:41;8.90;;;6.63;;
7767;SDS011;3928;42.626;23.382;2023-06-14T13:25:08;8.40;;;7.45;;
7767;SDS011;3928;42.626;23.382;2023-06-14T13:27:35;8.77;;;6.63;;
7767;SDS011;3928;42.626;23.382;2023-06-14T13:30:02;9.77;;;8.77;;
7767;SDS011;3928;42.626;23.382;2023-06-14T13:32:30;9.95;;;7.43;;
7767;SDS011;3928;42.626;23.382;2023-06-14T13:34:58;11.57;;;7.95;;
7767;SDS011;3928;42.626;23.382;2023-06-14T13:37:26;9.65;;;8.68;;
7767;SDS011;3928;42.626;23.382;2023-06-14T13:39:52;10.90;;;8.75;;
7767;SDS011;3928;42.626;23.382;2023-06-14T13:42:19;11.63;;;8.27;;
7767;SDS011;3928;42.626;23.382;2023-06-14T13:44:46;9.85;;;8.48;;
7767;SDS011;3928;42.626;23.382;2023-06-14T13:47:13;8.98;;;8.10;;
7767;SDS011;3928;42.626;23.382;2023-06-14T13:49:40;17.90;;;9.20;;
7767;SDS011;3928;42.626;23.382;2023-06-14T13:52:08;8.80;;;7.90;;
7767;SDS011;3928;42.626;23.382;2023-06-14T13:54:36;8.40;;;7.50;;
7767;SDS011;3928;42.626;23.382;2023-06-14T13:57:03;8.73;;;7.50;;
7767;SDS011;3928;42.626;23.382;2023-06-14T13:59:31;9.57;;;7.78;;
7767;SDS011;3928;42.626;23.382;2023-06-14T14:01:58;8.27;;;7.47;;
7767;SDS011;3928;42.626;23.382;2023-06-14T14:04:25;9.73;;;7.70;;
7767;SDS011;3928;42.626;23.382;2023-06-14T14:06:52;7.85;;;7.05;;
7767;SDS011;3928;42.626;23.382;2023-06-14T14:09:20;12.55;;;8.35;;
7767;SDS011;3928;42.626;23.382;2023-06-14T14:11:47;9.43;;;7.60;;
7767;SDS011;3928;42.626;23.382;2023-06-14T14:14:15;7.90;;;7.10;;
7767;SDS011;3928;42.626;23.382;2023-06-14T14:16:41;9.63;;;6.90;;
7767;SDS011;3928;42.626;23.382;2023-06-14T14:19:09;7.47;;;6.75;;
7767;SDS011;3928;42.626;23.382;2023-06-14T14:21:36;7.63;;;6.93;;
7767;SDS011;3928;42.626;23.382;2023-06-14T14:24:03;9.10;;;7.47;;
7767;SDS011;3928;42.626;23.382;2023-06-14T14:26:32;7.57;;;6.88;;
7767;SDS011;3928;42.626;23.382;2023-06-14T14:28:59;10.95;;;7.95;;
7767;SDS011;3928;42.626;23.382;2023-06-14T14:31:27;8.77;;;7.20;;
7767;SDS011;3928;42.626;23.382;2023-06-14T14:33:54;9.60;;;7.25;;
7767;SDS011;3928;42.626;23.382;2023-06-14T14:36:21;9.30;;;7.45;;
7767;SDS011;3928;42.626;23.382;2023-06-14T14:38:48;8.30;;;6.95;;
7767;SDS011;3928;42.626;23.382;2023-06-14T14:41:16;9.35;;;7.65;;
7767;SDS011;3928;42.626;23.382;2023-06-14T14:43:45;19.15;;;16.45;;
7767;SDS011;3928;42.626;23.382;2023-06-14T14:46:11;9.88;;;8.80;;
7767;SDS011;3928;42.626;23.382;2023-06-14T14:48:38;11.10;;;7.35;;
7767;SDS011;3928;42.626;23.382;2023-06-14T14:51:05;9.15;;;7.88;;
7767;SDS011;3928;42.626;23.382;2023-06-14T14:53:32;10.23;;;8.20;;
7767;SDS011;3928;42.626;23.382;2023-06-14T14:55:59;12.30;;;8.57;;
7767;SDS011;3928;42.626;23.382;2023-06-14T14:58:26;10.52;;;8.90;;